Time;durP1;ratioP1;P1;durP2;ratioP2;P2;SDS_P1;SDS_P2;PMS_P1;PMS_P2;Temp;Humidity;BMP_temperature;BMP_pressure;BME280_temperature;BME280_humidity;BME280_pressure;Samples;Min_cycle;Max_cycle;Signal;HPM_P1;HPM_P2
2023/04/10 00:01:38;;;;;;;7.50;6.90;;;;;;;6.10;90.58;100865.47;5039140;28;20195;-72
2023/04/10 00:04:05;;;;;;;7.57;6.97;;;;;;;6.04;90.83;100862.78;5038726;28;20313;-72
2023/04/10 00:06:31;;;;;;;8.07;7.37;;;;;;;5.94;90.97;100866.00;5034952;28;20282;-73
2023/04/10 00:08:57;;;;;;;7.30;6.70;;;;;;;5.85;91.32;100865.78;5038018;28;20671;-72
2023/04/10 00:11:24;;;;;;;7.77;7.17;;;;;;;5.75;91.45;100857.91;5036979;28;20228;-71
2023/04/10 00:13:49;;;;;;;6.70;6.10;;;;;;;5.68;91.74;100862.91;5034161;28;20590;-72
2023/04/10 00:16:15;;;;;;;7.20;6.60;;;;;;;5.60;91.98;100853.31;5037981;28;20191;-72
2023/04/10 00:18:40;;;;;;;6.20;5.70;;;;;;;5.52;92.02;100864.28;5057805;28;20210;-73
2023/04/10 00:21:05;;;;;;;6.97;6.37;;;;;;;5.41;92.18;100866.63;5034370;28;20188;-72
2023/04/10 00:23:33;;;;;;;6.70;6.20;;;;;;;5.33;92.46;100854.47;5052716;28;20216;-74
2023/04/10 00:25:59;;;;;;;6.27;5.77;;;;;;;5.29;92.48;100862.06;5035352;28;20189;-74
2023/04/10 00:28:24;;;;;;;7.47;6.87;;;;;;;5.28;92.95;100863.78;5045026;28;20869;-74
2023/04/10 00:30:50;;;;;;;7.80;7.10;;;;;;;5.26;93.21;100864.56;5029023;28;20187;-73
2023/04/10 00:33:15;;;;;;;8.70;8.00;;;;;;;5.19;93.47;100864.44;5032838;28;20217;-72
2023/04/10 00:35:40;;;;;;;7.37;6.77;;;;;;;5.15;93.78;100870.34;5035807;28;20214;-72
2023/04/10 00:38:05;;;;;;;8.33;7.60;;;;;;;5.14;93.84;100858.34;5037271;28;20203;-72
2023/04/10 00:40:31;;;;;;;7.70;7.10;;;;;;;5.15;94.13;100867.78;5034352;28;20230;-73
2023/04/10 00:42:56;;;;;;;7.97;7.37;;;;;;;5.15;94.24;100852.38;5043150;28;20298;-71
2023/04/10 00:45:22;;;;;;;8.80;8.00;;;;;;;5.16;94.59;100855.78;5037568;28;20207;-74
2023/04/10 00:47:47;;;;;;;7.80;7.20;;;;;;;5.14;94.75;100860.91;5039645;28;20177;-72
2023/04/10 00:50:13;;;;;;;9.07;8.37;;;;;;;5.16;95.89;100866.06;5037481;28;20222;-72
2023/04/10 00:52:38;;;;;;;8.00;7.40;;;;;;;5.16;96.25;100858.38;5037858;28;20229;-72
2023/04/10 00:55:04;;;;;;;8.47;7.77;;;;;;;5.15;96.48;100861.75;5042108;28;20239;-73
2023/04/10 00:57:31;;;;;;;8.10;7.50;;;;;;;5.11;96.35;100858.25;5034054;28;20192;-72
2023/04/10 00:59:57;;;;;;;8.10;7.40;;;;;;;5.10;96.50;100860.81;5035368;28;20178;-73
2023/04/10 01:02:22;;;;;;;8.60;7.90;;;;;;;5.07;96.46;100858.16;5037692;28;20191;-73
2023/04/10 01:04:47;;;;;;;8.13;7.40;;;;;;;5.01;96.40;100852.06;5039466;28;20202;-73
2023/04/10 01:07:17;;;;;;;8.30;7.60;;;;;;;5.00;96.18;100849.47;5039960;28;20179;-73
2023/04/10 01:10:09;;;;;;;8.40;7.73;;;;;;;4.94;96.26;100846.75;5038738;28;20187;-72
2023/04/10 01:12:56;;;;;;;8.47;7.67;;;;;;;4.91;96.26;100855.25;5042953;28;20211;-72
2023/04/10 01:15:25;;;;;;;7.83;7.13;;;;;;;4.88;96.33;100868.00;5033095;28;20310;-73
2023/04/10 01:18:09;;;;;;;8.40;7.70;;;;;;;4.84;96.44;100856.81;5034719;28;20190;-72
2023/04/10 01:20:38;;;;;;;7.37;6.77;;;;;;;4.83;96.55;100852.50;5042536;28;20183;-72
2023/04/10 01:23:41;;;;;;;7.63;6.93;;;;;;;4.83;96.62;100867.88;5040329;28;20656;-73
2023/04/10 01:26:09;;;;;;;7.70;7.10;;;;;;;4.79;96.83;100865.22;5039366;28;20712;-72
2023/04/10 01:28:47;;;;;;;7.87;7.17;;;;;;;4.78;96.68;100859.22;5039986;28;20191;-73
2023/04/10 01:31:18;;;;;;;8.10;7.50;;;;;;;4.75;96.84;100855.72;5039827;28;20273;-73
2023/04/10 01:33:49;;;;;;;7.93;7.33;;;;;;;4.71;96.88;100860.75;5039562;28;20235;-73
2023/04/10 01:36:21;;;;;;;7.60;7.00;;;;;;;4.70;96.81;100864.16;5046902;28;20191;-73
2023/04/10 01:38:48;;;;;;;8.17;7.47;;;;;;;4.70;96.87;100871.84;5035406;28;20734;-73
2023/04/10 01:41:15;;;;;;;7.60;7.00;;;;;;;4.70;96.85;100871.00;5042706;28;20187;-72
2023/04/10 01:43:41;;;;;;;8.13;7.43;;;;;;;4.67;96.59;100869.22;5032113;28;20198;-73
2023/04/10 01:46:07;;;;;;;7.70;7.00;;;;;;;4.67;96.61;100878.59;5028851;28;20667;-72
2023/04/10 01:48:33;;;;;;;7.63;7.03;;;;;;;4.65;96.73;100870.88;5041036;28;20183;-73
2023/04/10 01:51:02;;;;;;;7.27;6.67;;;;;;;4.67;96.61;100873.47;5033320;28;20182;-72
2023/04/10 01:53:29;;;;;;;8.10;7.40;;;;;;;4.65;96.45;100870.88;5031263;28;20303;-72
2023/04/10 01:55:55;;;;;;;6.43;5.93;;;;;;;4.66;96.54;100877.75;5029397;28;20183;-71
2023/04/10 01:58:20;;;;;;;6.93;6.33;;;;;;;4.65;96.50;100872.56;5026111;28;20318;-72
2023/04/10 02:00:45;;;;;;;6.77;6.17;;;;;;;4.63;96.29;100866.53;5036699;28;20494;-72
2023/04/10 02:03:11;;;;;;;6.77;6.27;;;;;;;4.63;96.22;100863.97;5041470;28;20844;-72
2023/04/10 02:05:55;;;;;;;6.60;6.10;;;;;;;4.61;96.27;100856.25;5035304;28;20297;-74
2023/04/10 02:08:33;;;;;;;6.93;6.40;;;;;;;4.55;96.35;100846.72;5032466;28;20187;-71
2023/04/10 02:11:14;;;;;;;6.50;6.00;;;;;;;4.53;96.49;100845.81;5031079;28;20758;-72
2023/04/10 02:13:41;;;;;;;6.30;5.80;;;;;;;4.51;96.32;100844.03;5030234;28;20287;-73
2023/04/10 02:16:07;;;;;;;6.73;6.13;;;;;;;4.50;96.13;100840.59;5034936;28;20193;-73
2023/04/10 02:18:35;;;;;;;6.37;5.87;;;;;;;4.49;96.45;100841.41;5033661;28;20195;-72
2023/04/10 02:21:02;;;;;;;6.07;5.67;;;;;;;4.48;96.55;100839.69;5037508;28;20240;-72
2023/04/10 02:23:27;;;;;;;6.60;6.03;;;;;;;4.46;96.63;100840.50;5053985;28;20750;-73
2023/04/10 02:25:55;;;;;;;6.43;5.93;;;;;;;4.44;96.70;100848.16;5039567;28;20217;-72
2023/04/10 02:28:21;;;;;;;6.10;5.60;;;;;;;4.43;96.71;100839.56;5034098;28;20194;-72
2023/04/10 02:30:46;;;;;;;6.10;5.60;;;;;;;4.41;96.67;100842.94;5034629;28;20187;-72
2023/04/10 02:33:11;;;;;;;6.50;6.00;;;;;;;4.41;96.95;100845.50;5042401;28;20756;-71
2023/04/10 02:35:37;;;;;;;5.97;5.47;;;;;;;4.40;97.32;100843.78;5032286;28;20202;-72
2023/04/10 02:38:02;;;;;;;6.83;6.23;;;;;;;4.40;97.46;100836.94;5025965;28;20192;-72
2023/04/10 02:40:28;;;;;;;6.60;6.10;;;;;;;4.39;97.63;100836.91;5027535;28;20187;-73
2023/04/10 02:42:53;;;;;;;7.60;7.00;;;;;;;4.37;97.83;100834.31;5031704;28;20187;-71
2023/04/10 02:45:18;;;;;;;8.10;7.40;;;;;;;4.36;97.98;100835.13;5034696;28;20276;-72
2023/04/10 02:47:43;;;;;;;8.40;7.70;;;;;;;4.33;98.15;100834.16;5035750;28;20186;-72
2023/04/10 02:50:10;;;;;;;8.10;7.50;;;;;;;4.30;98.26;100836.69;5032544;28;20703;-72
2023/04/10 02:52:35;;;;;;;7.80;7.20;;;;;;;4.29;98.55;100834.94;5039347;28;20186;-73
2023/04/10 02:55:00;;;;;;;7.77;7.17;;;;;;;4.28;98.76;100826.38;5035729;28;20238;-73
2023/04/10 02:57:27;;;;;;;8.37;7.67;;;;;;;4.28;98.97;100823.81;5037067;28;20188;-72
2023/04/10 02:59:53;;;;;;;8.33;7.63;;;;;;;4.30;99.26;100826.44;5041443;28;20187;-73
2023/04/10 03:02:19;;;;;;;7.93;7.33;;;;;;;4.30;99.77;100819.59;5038575;28;20249;-74
2023/04/10 03:04:44;;;;;;;7.67;7.07;;;;;;;4.31;100.00;100818.78;5032228;28;20399;-72
2023/04/10 03:07:09;;;;;;;7.93;7.23;;;;;;;4.32;100.00;100820.50;5048735;28;20756;-72
2023/04/10 03:09:35;;;;;;;7.50;6.90;;;;;;;4.32;100.00;100817.94;5042070;28;20199;-73
2023/04/10 03:12:01;;;;;;;7.80;7.10;;;;;;;4.27;100.00;100817.84;5035554;28;20186;-72
2023/04/10 03:14:26;;;;;;;7.20;6.60;;;;;;;4.26;100.00;100821.22;5036692;28;20219;-74
2023/04/10 03:16:51;;;;;;;7.57;6.97;;;;;;;4.21;100.00;100809.97;5031246;28;20179;-71
2023/04/10 03:19:17;;;;;;;7.13;6.53;;;;;;;4.17;100.00;100815.84;5032511;28;20184;-72
2023/04/10 03:21:42;;;;;;;7.90;7.30;;;;;;;4.14;100.00;100815.78;5042354;28;20182;-72
2023/04/10 03:24:07;;;;;;;7.93;7.23;;;;;;;4.08;100.00;100800.25;5040259;28;20204;-73
2023/04/10 03:26:33;;;;;;;7.40;6.80;;;;;;;4.04;100.00;100801.88;5044377;28;20654;-71
2023/04/10 03:28:58;;;;;;;7.83;7.13;;;;;;;4.01;100.00;100800.94;5029751;28;20187;-71
2023/04/10 03:31:23;;;;;;;7.93;7.33;;;;;;;4.00;100.00;100791.50;5037813;28;20191;-73
2023/04/10 03:33:49;;;;;;;8.47;7.77;;;;;;;3.99;100.00;100784.66;5033838;28;20264;-72
2023/04/10 03:36:14;;;;;;;7.57;6.97;;;;;;;3.99;100.00;100784.66;5035388;28;20186;-72
2023/04/10 03:38:40;;;;;;;8.17;7.47;;;;;;;4.00;100.00;100774.44;5043777;28;20191;-73
2023/04/10 03:41:05;;;;;;;7.70;7.10;;;;;;;4.00;100.00;100779.56;5038882;28;20906;-72
2023/04/10 03:43:31;;;;;;;6.87;6.37;;;;;;;4.02;100.00;100774.47;5032888;28;20705;-72
2023/04/10 03:45:56;;;;;;;7.67;6.97;;;;;;;4.02;100.00;100769.34;5034259;28;20679;-71
2023/04/10 03:48:22;;;;;;;7.70;7.10;;;;;;;4.02;100.00;100764.22;5040156;28;20265;-72
2023/04/10 03:50:47;;;;;;;8.33;7.63;;;;;;;4.01;100.00;100758.25;5044284;28;20187;-71
2023/04/10 03:53:12;;;;;;;7.63;7.03;;;;;;;4.01;100.00;100765.09;5034760;28;20216;-72
2023/04/10 03:55:38;;;;;;;6.83;6.23;;;;;;;3.99;100.00;100765.03;5040388;28;20443;-72
2023/04/10 03:58:04;;;;;;;7.13;6.53;;;;;;;3.99;100.00;100765.03;5030819;28;20202;-71
2023/04/10 04:00:30;;;;;;;7.60;7.00;;;;;;;3.95;100.00;100766.66;5044534;28;20190;-72
2023/04/10 04:02:57;;;;;;;7.60;6.97;;;;;;;3.89;100.00;100770.75;5047102;28;20662;-72
2023/04/10 04:05:22;;;;;;;7.70;7.10;;;;;;;3.85;100.00;100772.38;5031887;28;20210;-72
2023/04/10 04:07:47;;;;;;;7.80;7.20;;;;;;;3.81;100.00;100771.38;5032104;28;20197;-73
2023/04/10 04:10:13;;;;;;;8.53;7.83;;;;;;;3.76;100.00;100769.53;5030057;28;20198;-72
2023/04/10 04:12:38;;;;;;;7.80;7.10;;;;;;;3.72;100.00;100767.72;5036428;28;20183;-71
2023/04/10 04:15:04;;;;;;;8.30;7.60;;;;;;;3.68;100.00;100768.47;5038182;28;20230;-72
2023/04/10 04:17:29;;;;;;;7.90;7.30;;;;;;;3.63;100.00;100776.03;5057258;28;20189;-72
2023/04/10 04:19:54;;;;;;;7.50;6.90;;;;;;;3.57;100.00;100773.31;5039138;28;20194;-72
2023/04/10 04:22:20;;;;;;;8.20;7.50;;;;;;;3.51;100.00;100777.41;5032323;28;20230;-73
2023/04/10 04:24:45;;;;;;;8.43;7.63;;;;;;;3.49;100.00;100773.94;5039748;28;20226;-72
2023/04/10 04:27:11;;;;;;;10.00;9.10;;;;;;;3.46;100.00;100767.88;5036833;28;20602;-73
2023/04/10 04:29:36;;;;;;;8.80;8.10;;;;;;;3.43;100.00;100768.66;5038229;28;20196;-72
2023/04/10 04:32:01;;;;;;;8.57;7.87;;;;;;;3.41;100.00;100769.44;5026887;28;20198;-72
2023/04/10 04:34:26;;;;;;;8.30;7.60;;;;;;;3.41;100.00;100765.19;5031683;28;20603;-72
2023/04/10 04:36:55;;;;;;;8.50;7.73;;;;;;;3.42;100.00;100769.50;5041189;28;20189;-73
2023/04/10 04:39:22;;;;;;;8.63;7.90;;;;;;;3.43;100.00;100761.00;5037750;28;20719;-72
2023/04/10 04:41:47;;;;;;;9.33;8.53;;;;;;;3.43;100.00;100766.13;5032452;28;20185;-73
2023/04/10 04:44:12;;;;;;;8.93;8.20;;;;;;;3.42;100.00;100768.59;5033652;28;20206;-73
2023/04/10 04:46:38;;;;;;;8.77;8.07;;;;;;;3.42;100.00;100769.50;5036653;28;20179;-72
2023/04/10 04:49:03;;;;;;;8.50;7.80;;;;;;;3.43;100.00;100776.34;5038371;28;20211;-72
2023/04/10 04:51:28;;;;;;;9.03;8.23;;;;;;;3.43;100.00;100775.47;5029215;28;20557;-72
2023/04/10 04:53:54;;;;;;;8.70;7.97;;;;;;;3.43;100.00;100780.59;5031932;28;20207;-73
2023/04/10 04:56:19;;;;;;;8.87;8.17;;;;;;;3.41;100.00;100779.66;5034785;28;20621;-72
2023/04/10 04:58:44;;;;;;;9.00;8.27;;;;;;;3.40;100.00;100783.06;5031189;28;20183;-74
2023/04/10 05:01:09;;;;;;;8.80;8.10;;;;;;;3.39;100.00;100779.63;5032429;28;20191;-72
2023/04/10 05:03:35;;;;;;;8.57;7.50;;;;;;;3.38;100.00;100788.13;5048998;28;20279;-71
2023/04/10 05:06:00;;;;;;;7.80;7.20;;;;;;;3.43;100.00;100788.25;5040842;28;20187;-72
2023/04/10 05:08:26;;;;;;;8.40;7.70;;;;;;;3.49;100.00;100791.00;5036384;28;20210;-72
2023/04/10 05:10:51;;;;;;;8.20;7.50;;;;;;;3.57;100.00;100788.66;5029963;28;20195;-72
2023/04/10 05:13:16;;;;;;;7.93;7.23;;;;;;;3.65;100.00;100798.28;5037609;28;20219;-72
2023/04/10 05:15:45;;;;;;;7.97;7.37;;;;;;;3.74;100.00;100797.66;5030547;28;20179;-71
2023/04/10 05:18:12;;;;;;;7.87;7.27;;;;;;;3.84;100.00;100798.78;5031141;28;20766;-73
2023/04/10 05:20:38;;;;;;;8.47;7.70;;;;;;;3.91;100.00;100797.25;5032518;28;20312;-71
2023/04/10 05:23:03;;;;;;;8.43;7.73;;;;;;;3.97;100.00;100795.72;5037977;28;20261;-72
2023/04/10 05:25:28;;;;;;;8.33;7.63;;;;;;;4.08;100.00;100797.69;5033736;28;20207;-73
2023/04/10 05:27:54;;;;;;;7.30;6.70;;;;;;;4.16;100.00;100796.19;5041283;28;20182;-72
2023/04/10 05:30:19;;;;;;;7.87;7.17;;;;;;;4.26;100.00;100787.91;5040044;28;20186;-72
2023/04/10 05:32:45;;;;;;;6.93;6.37;;;;;;;4.44;100.00;100781.50;5037931;28;20191;-72
2023/04/10 05:35:10;;;;;;;7.70;7.10;;;;;;;4.64;100.00;100774.28;5026575;28;20219;-73
2023/04/10 05:37:36;;;;;;;7.37;6.77;;;;;;;4.84;100.00;100784.16;5029338;28;20194;-72
2023/04/10 05:40:01;;;;;;;7.13;6.53;;;;;;;5.02;100.00;100779.41;5037678;28;20191;-73
2023/04/10 05:42:26;;;;;;;7.43;6.83;;;;;;;5.17;100.00;100776.31;5046978;28;20183;-71
2023/04/10 05:44:52;;;;;;;6.83;6.33;;;;;;;5.33;100.00;100784.31;5033751;28;20224;-72
2023/04/10 05:47:17;;;;;;;7.47;6.77;;;;;;;5.50;100.00;100784.66;5039077;28;20703;-72
2023/04/10 05:49:42;;;;;;;7.53;6.83;;;;;;;5.69;99.33;100785.03;5038188;28;20851;-72
2023/04/10 05:52:07;;;;;;;7.43;6.83;;;;;;;5.89;98.85;100790.53;5026753;28;20533;-73
2023/04/10 05:54:33;;;;;;;7.17;6.57;;;;;;;6.14;97.96;100785.84;5043175;28;20218;-72
2023/04/10 05:56:58;;;;;;;7.60;7.00;;;;;;;6.37;97.07;100791.38;5032435;28;20190;-72
2023/04/10 05:59:24;;;;;;;7.70;7.10;;;;;;;6.58;96.30;100795.13;5036202;28;20192;-72
2023/04/10 06:01:49;;;;;;;7.40;6.80;;;;;;;6.77;95.55;100788.56;5047254;28;20681;-72
2023/04/10 06:04:15;;;;;;;7.20;6.60;;;;;;;6.97;94.86;100786.28;5035862;28;20207;-72
2023/04/10 06:06:40;;;;;;;7.10;6.40;;;;;;;7.23;94.31;100783.19;5046655;28;20179;-72
2023/04/10 06:09:06;;;;;;;6.70;6.13;;;;;;;7.44;93.38;100780.03;5028413;28;20607;-72
2023/04/10 06:11:31;;;;;;;7.20;6.60;;;;;;;7.63;92.27;100787.13;5027898;28;20184;-72
2023/04/10 06:13:56;;;;;;;6.33;5.73;;;;;;;7.90;91.27;100789.97;5042948;28;20221;-71
2023/04/10 06:16:21;;;;;;;6.97;6.37;;;;;;;8.19;90.31;100787.66;5047381;28;20193;-72
2023/04/10 06:18:47;;;;;;;6.33;5.83;;;;;;;8.57;89.20;100781.13;5030455;28;20182;-72
2023/04/10 06:21:13;;;;;;;6.40;5.90;;;;;;;9.06;87.83;100783.13;5031159;28;20265;-73
2023/04/10 06:23:39;;;;;;;6.73;6.13;;;;;;;9.63;85.96;100782.50;5035538;28;20285;-73
2023/04/10 06:26:04;;;;;;;6.80;6.20;;;;;;;10.03;83.93;100781.72;5032457;28;20626;-72
2023/04/10 06:28:30;;;;;;;6.50;6.00;;;;;;;10.50;82.88;100773.16;5036061;28;20202;-73
2023/04/10 06:30:56;;;;;;;6.60;6.00;;;;;;;11.10;80.81;100776.50;5031175;28;20664;-74
2023/04/10 06:33:21;;;;;;;6.03;5.53;;;;;;;11.73;77.56;100775.31;5036257;28;20214;-72
2023/04/10 06:35:46;;;;;;;6.20;5.70;;;;;;;12.44;75.39;100772.25;5036001;28;20192;-73
2023/04/10 06:38:12;;;;;;;5.50;5.10;;;;;;;13.02;72.30;100769.94;5033001;28;20174;-74
2023/04/10 06:40:37;;;;;;;5.57;5.07;;;;;;;13.37;71.23;100770.38;5028954;28;20845;-72
2023/04/10 06:43:02;;;;;;;5.47;5.00;;;;;;;13.64;70.02;100770.91;5030170;28;20190;-71
2023/04/10 06:45:28;;;;;;;5.37;4.97;;;;;;;13.79;69.26;100777.66;5028921;28;20206;-73
2023/04/10 06:47:53;;;;;;;5.17;4.77;;;;;;;13.98;68.74;100766.09;5030611;28;20182;-73
2023/04/10 06:50:18;;;;;;;5.10;4.70;;;;;;;14.29;67.82;100765.56;5027099;28;20186;-72
2023/04/10 06:52:44;;;;;;;5.00;4.60;;;;;;;14.68;67.28;100759.72;5035361;28;20599;-71
2023/04/10 06:55:11;;;;;;;5.80;5.30;;;;;;;14.90;67.23;100754.97;5031023;28;21382;-74
2023/04/10 06:57:37;;;;;;;5.10;4.70;;;;;;;15.00;66.79;100755.66;5029588;28;21237;-72
2023/04/10 07:00:03;;;;;;;5.37;4.93;;;;;;;15.04;66.31;100756.47;5031711;28;20187;-73
2023/04/10 07:02:28;;;;;;;5.23;4.83;;;;;;;14.99;66.38;100747.88;5030392;28;20212;-73
2023/04/10 07:04:55;;;;;;;5.60;5.20;;;;;;;14.99;66.33;100746.13;5029209;28;20215;-72
2023/04/10 07:07:20;;;;;;;5.27;4.87;;;;;;;14.86;66.06;100747.25;5033796;28;20184;-72
2023/04/10 07:09:46;;;;;;;6.47;5.87;;;;;;;14.74;67.06;100750.97;5040772;28;20193;-72
2023/04/10 07:12:11;;;;;;;5.07;4.67;;;;;;;14.58;65.93;100742.53;5047158;28;20774;-72
2023/04/10 07:14:36;;;;;;;5.30;4.90;;;;;;;14.57;66.10;100740.81;5035464;28;20479;-72
2023/04/10 07:17:02;;;;;;;5.10;4.77;;;;;;;14.47;66.35;100751.41;5040686;28;20617;-73
2023/04/10 07:19:28;;;;;;;4.67;4.33;;;;;;;14.53;66.24;100754.75;5031352;28;20252;-72
2023/04/10 07:21:53;;;;;;;4.90;4.50;;;;;;;14.48;66.08;100750.53;5031414;28;20671;-72
2023/04/10 07:24:18;;;;;;;5.10;4.70;;;;;;;14.38;65.82;100743.75;5039321;28;20222;-73
2023/04/10 07:26:44;;;;;;;4.57;4.20;;;;;;;14.26;65.81;100741.34;5034696;28;20904;-72
2023/04/10 07:29:10;;;;;;;4.30;4.00;;;;;;;14.26;66.01;100744.84;5038446;28;20276;-73
2023/04/10 07:31:35;;;;;;;4.27;3.97;;;;;;;14.20;65.70;100742.31;5036830;28;20198;-73
2023/04/10 07:34:02;;;;;;;4.27;3.97;;;;;;;14.13;65.81;100741.56;5034738;28;20216;-73
2023/04/10 07:36:28;;;;;;;5.33;4.90;;;;;;;14.00;65.37;100740.88;5034929;28;20191;-72
2023/04/10 07:38:54;;;;;;;5.10;4.70;;;;;;;13.91;64.78;100743.66;5035144;28;20194;-73
2023/04/10 07:41:21;;;;;;;4.83;4.43;;;;;;;13.80;64.43;100743.81;5039193;28;20755;-73
2023/04/10 07:43:46;;;;;;;4.13;3.83;;;;;;;13.70;63.40;100740.47;5043485;28;20211;-72
2023/04/10 07:46:12;;;;;;;3.90;3.60;;;;;;;13.67;63.82;100734.47;5035850;28;20193;-73
2023/04/10 07:48:37;;;;;;;4.07;3.77;;;;;;;13.67;63.60;100743.16;5035557;28;20246;-72
2023/04/10 07:51:02;;;;;;;3.40;3.20;;;;;;;13.73;63.65;100744.78;5030496;28;20211;-72
2023/04/10 07:53:28;;;;;;;3.07;2.87;;;;;;;13.82;63.61;100746.41;5036836;28;20766;-72
2023/04/10 07:55:53;;;;;;;3.50;3.20;;;;;;;13.96;62.53;100741.84;5048041;28;20681;-72
2023/04/10 07:58:18;;;;;;;2.87;2.67;;;;;;;14.01;62.64;100741.75;5030680;28;20225;-72
2023/04/10 08:00:44;;;;;;;3.43;3.17;;;;;;;14.08;62.24;100737.31;5033831;28;20269;-73
2023/04/10 08:03:11;;;;;;;2.80;2.60;;;;;;;14.18;62.19;100736.28;5042348;28;20304;-73
2023/04/10 08:05:36;;;;;;;2.90;2.70;;;;;;;14.20;60.98;100741.47;5033591;28;20204;-74
2023/04/10 08:08:01;;;;;;;3.20;2.90;;;;;;;14.26;61.05;100736.16;5030639;28;20675;-73
2023/04/10 08:10:27;;;;;;;3.10;2.77;;;;;;;14.33;61.27;100736.00;5027583;28;20237;-72
2023/04/10 08:12:52;;;;;;;2.90;2.70;;;;;;;14.40;61.18;100744.56;5036773;28;20238;-72
2023/04/10 08:15:17;;;;;;;2.77;2.57;;;;;;;14.39;60.83;100737.66;5035803;28;20220;-73
2023/04/10 08:17:43;;;;;;;2.80;2.60;;;;;;;14.36;60.42;100736.84;5038415;28;20626;-72
2023/04/10 08:20:09;;;;;;;2.70;2.50;;;;;;;14.29;60.13;100734.34;5032068;28;20747;-73
2023/04/10 08:22:35;;;;;;;2.80;2.60;;;;;;;14.30;60.75;100732.59;5042077;28;20190;-72
2023/04/10 08:25:00;;;;;;;2.83;2.63;;;;;;;14.27;60.61;100733.53;5033123;28;20201;-74
2023/04/10 08:27:27;;;;;;;2.50;2.30;;;;;;;14.21;59.39;100730.19;5037687;28;20281;-72
2023/04/10 08:29:52;;;;;;;2.77;2.57;;;;;;;14.19;59.38;100740.59;5035020;28;20668;-73
2023/04/10 08:32:17;;;;;;;2.80;2.60;;;;;;;14.16;59.35;100738.03;5035599;28;20189;-72
2023/04/10 08:34:43;;;;;;;2.80;2.60;;;;;;;14.18;59.48;100731.94;5037080;28;20222;-74
2023/04/10 08:37:11;;;;;;;2.87;2.67;;;;;;;14.08;58.27;100726.91;5043602;28;20190;-74
2023/04/10 08:39:36;;;;;;;3.00;2.80;;;;;;;14.11;58.63;100732.06;5032923;28;20213;-74
2023/04/10 08:42:02;;;;;;;2.60;2.40;;;;;;;14.21;58.53;100725.81;5036199;28;20226;-72
2023/04/10 08:44:28;;;;;;;3.07;2.87;;;;;;;14.19;58.03;100732.78;5036502;28;20203;-72
2023/04/10 08:46:59;;;;;;;2.57;2.43;;;;;;;14.24;57.83;100732.69;5033877;28;20653;-73
2023/04/10 08:49:53;;;;;;;3.37;3.13;;;;;;;14.17;56.62;100729.34;5028115;28;20680;-74
2023/04/10 08:52:24;;;;;;;3.10;2.77;;;;;;;14.17;56.69;100722.41;5032203;28;20266;-72
2023/04/10 08:54:55;;;;;;;2.90;2.70;;;;;;;14.25;56.31;100718.81;5036562;28;20222;-73
2023/04/10 08:57:21;;;;;;;2.80;2.60;;;;;;;14.32;56.33;100715.22;5036045;28;20190;-74
2023/04/10 08:59:47;;;;;;;3.10;2.90;;;;;;;14.41;56.05;100711.59;5039666;28;20197;-73
2023/04/10 09:02:13;;;;;;;2.93;2.73;;;;;;;14.47;55.71;100712.34;5024698;28;20286;-73
2023/04/10 09:04:38;;;;;;;2.63;2.43;;;;;;;14.58;55.51;100706.94;5031740;28;20301;-73
2023/04/10 09:07:04;;;;;;;2.63;2.43;;;;;;;14.68;55.15;100705.03;5031687;28;20234;-73
2023/04/10 09:09:33;;;;;;;2.60;2.40;;;;;;;14.75;54.73;100696.22;5032663;28;20275;-73
2023/04/10 09:12:00;;;;;;;2.67;2.47;;;;;;;14.82;54.23;100693.50;5036005;28;20190;-71
2023/04/10 09:14:30;;;;;;;2.40;2.20;;;;;;;14.91;54.23;100694.16;5033303;28;20298;-74
2023/04/10 09:17:16;;;;;;;2.50;2.30;;;;;;;15.07;54.69;100680.78;5039222;28;20295;-72
2023/04/10 09:19:46;;;;;;;3.00;2.70;;;;;;;15.26;54.58;100680.41;5035833;28;20207;-73
2023/04/10 09:22:12;;;;;;;3.77;3.03;;;;;;;15.44;54.59;100677.38;5027723;28;20194;-73
2023/04/10 09:24:43;;;;;;;3.87;3.47;;;;;;;15.62;55.09;100670.03;5037883;28;20198;-73
2023/04/10 09:27:09;;;;;;;2.70;2.50;;;;;;;15.80;55.10;100666.09;5049754;28;20667;-73
2023/04/10 09:29:44;;;;;;;3.50;3.20;;;;;;;16.03;55.32;100664.72;5034996;28;20192;-73
2023/04/10 09:32:10;;;;;;;2.83;2.63;;;;;;;16.19;55.01;100655.56;5035831;28;20197;-72
2023/04/10 09:34:51;;;;;;;3.93;3.37;;;;;;;16.37;54.45;100655.97;5034613;28;20239;-74
2023/04/10 09:37:19;;;;;;;4.97;3.67;;;;;;;16.59;55.11;100654.50;5032450;28;20183;-73
2023/04/10 09:39:45;;;;;;;3.30;3.00;;;;;;;16.77;54.91;100652.25;5040680;28;20186;-74
2023/04/10 09:42:11;;;;;;;6.73;4.87;;;;;;;16.94;54.36;100648.31;5031927;28;20202;-73
2023/04/10 09:44:38;;;;;;;4.43;3.93;;;;;;;17.09;54.40;100647.88;5038263;28;20277;-73
2023/04/10 09:47:12;;;;;;;6.30;5.10;;;;;;;17.22;54.18;100645.72;5033453;28;20764;-72
2023/04/10 09:49:48;;;;;;;5.37;4.97;;;;;;;17.39;54.46;100637.34;5033130;28;20727;-75
2023/04/10 09:52:18;;;;;;;4.47;4.07;;;;;;;17.48;53.87;100637.06;5031368;28;20199;-73
2023/04/10 09:54:44;;;;;;;3.17;2.97;;;;;;;17.52;53.65;100625.59;5035225;28;20214;-72
2023/04/10 09:57:12;;;;;;;3.10;2.90;;;;;;;17.58;53.37;100626.28;5024977;28;21120;-73
2023/04/10 09:59:39;;;;;;;2.70;2.50;;;;;;;17.63;53.08;100614.75;5038845;28;20197;-73
2023/04/10 10:02:05;;;;;;;2.70;2.50;;;;;;;17.75;53.10;100618.72;5030987;28;20209;-73
2023/04/10 10:04:32;;;;;;;2.63;2.43;;;;;;;17.86;52.95;100607.91;5036927;28;20211;-75
2023/04/10 10:06:57;;;;;;;2.40;2.30;;;;;;;17.96;52.77;100605.81;5028981;28;20282;-72
2023/04/10 10:09:24;;;;;;;2.60;2.43;;;;;;;18.02;52.86;100603.00;5037326;28;20269;-75
2023/04/10 10:11:51;;;;;;;3.00;2.70;;;;;;;18.08;53.54;100602.78;5030506;28;20190;-72
2023/04/10 10:14:20;;;;;;;2.90;2.70;;;;;;;18.15;53.99;100598.19;5040381;28;21134;-73
2023/04/10 10:16:54;;;;;;;4.20;2.93;;;;;;;18.22;54.37;100597.09;5026478;28;20949;-73
2023/04/10 10:19:25;;;;;;;2.60;2.40;;;;;;;18.28;54.18;100590.75;5034531;28;20189;-74
2023/04/10 10:21:52;;;;;;;2.50;2.30;;;;;;;18.29;54.42;100600.34;5036073;28;20197;-72
2023/04/10 10:24:20;;;;;;;2.77;2.57;;;;;;;18.20;53.84;100592.78;5030147;28;20327;-74
2023/04/10 10:26:46;;;;;;;2.90;2.60;;;;;;;18.09;53.82;100593.16;5031012;28;20193;-73
2023/04/10 10:29:16;;;;;;;3.30;2.90;;;;;;;18.02;53.28;100589.06;5038814;28;20758;-73
2023/04/10 10:31:42;;;;;;;2.67;2.47;;;;;;;17.94;52.86;100592.75;5026018;28;20931;-74
2023/04/10 10:34:08;;;;;;;2.60;2.40;;;;;;;17.83;53.30;100587.91;5028154;28;20224;-72
2023/04/10 10:36:34;;;;;;;2.70;2.50;;;;;;;17.79;54.05;100585.44;5034172;28;20220;-72
2023/04/10 10:39:16;;;;;;;3.93;3.53;;;;;;;17.83;54.72;100584.44;5039644;28;20210;-75
2023/04/10 10:42:06;;;;;;;4.23;3.50;;;;;;;17.86;55.46;100578.22;5025241;28;20183;-73
2023/04/10 10:44:59;;;;;;;5.83;3.67;;;;;;;17.85;55.85;100576.53;5038163;28;20707;-74
2023/04/10 10:47:29;;;;;;;6.50;4.20;;;;;;;17.95;56.08;100575.31;5030854;28;20200;-75
2023/04/10 10:49:59;;;;;;;3.43;3.13;;;;;;;17.98;55.45;100565.59;5037070;28;20207;-73
2023/04/10 10:52:56;;;;;;;3.40;3.10;;;;;;;18.05;55.46;100566.22;5027373;28;20194;-73
2023/04/10 10:55:21;;;;;;;3.20;2.57;;;;;;;18.06;55.22;100567.09;5034214;28;20227;-73
2023/04/10 10:57:53;;;;;;;3.10;2.90;;;;;;;17.95;53.57;100575.31;5031481;28;20216;-72
2023/04/10 11:00:25;;;;;;;2.80;2.60;;;;;;;17.84;53.16;100565.19;5027200;28;20219;-73
2023/04/10 11:03:06;;;;;;;2.60;2.40;;;;;;;17.96;53.69;100562.16;5028356;28;20194;-73
2023/04/10 11:06:01;;;;;;;2.90;2.70;;;;;;;18.08;54.26;100557.41;5031029;28;20222;-74
2023/04/10 11:08:35;;;;;;;2.87;2.67;;;;;;;18.22;54.69;100560.41;5038399;28;20269;-72
2023/04/10 11:11:06;;;;;;;3.27;3.07;;;;;;;18.38;54.95;100562.44;5032081;28;20195;-72
2023/04/10 11:14:01;;;;;;;2.87;2.67;;;;;;;18.57;55.05;100560.00;5049666;28;20218;-72
2023/04/10 11:16:34;;;;;;;2.80;2.60;;;;;;;18.73;55.11;100555.00;5038157;28;20198;-73
2023/04/10 11:19:00;;;;;;;2.70;2.50;;;;;;;18.83;54.85;100547.63;5046060;28;20186;-73
2023/04/10 11:21:27;;;;;;;2.70;2.50;;;;;;;18.88;54.96;100541.28;5028586;28;20204;-73
2023/04/10 11:23:53;;;;;;;2.80;2.60;;;;;;;18.96;54.86;100546.28;5032659;28;20954;-72
2023/04/10 11:26:42;;;;;;;2.80;2.60;;;;;;;19.05;54.82;100529.31;5034193;28;20214;-73
2023/04/10 11:29:16;;;;;;;2.80;2.60;;;;;;;19.09;54.06;100522.16;5034598;28;20265;-72